Calypso — IYQT — position and weather

sailwx.info

Track history (hours):
 
Tides and Currents Weather Stations Pressure Air Temp Water Temp Dewpoint Dewpoint Depression Visibility Wind Speed Wind Dir Waves Ship Positions

Calypso

Last reported at 2016-Jun-27 07:32 UTC. Time now 2016-Jun-27 07:50 UTC.
Position N 37°58' E 012°14'.

Length 25 m; draft 4.2 m.

Type: High speed craft. MMSI: 247143200.

Date/timePositionNaut miles runAvg speedWind from/ knotsBaromVisibWave heightAir tempDewpointWater temp
2016-Jun-27 07:32N 37°58' E 012°14'1313.4
2016-Jun-27 06:33N 38°01' E 012°30'9 9.2
2016-Jun-27 05:33N 37°58' E 012°19'9 9.4
2016-Jun-27 04:33N 38°01' E 012°31'0 0.0
2016-Jun-26 19:27N 38°01' E 012°31'8 9.1
2016-Jun-26 18:33N 37°59' E 012°21'3 2.9
2016-Jun-26 17:33N 37°58' E 012°24'5 5.4
2016-Jun-26 16:34N 38°01' E 012°30'10 9.7
2016-Jun-26 15:33N 37°57' E 012°19'7 6.2
2016-Jun-26 14:30N 37°58' E 012°11'1616.3
2016-Jun-26 13:33N 38°01' E 012°30'0 0.1
2016-Jun-26 12:33N 38°01' E 012°31'0 0.0
2016-Jun-26 11:33N 38°01' E 012°31'4 3.8
2016-Jun-26 10:34N 38°00' E 012°26'4 3.6
2016-Jun-26 09:33N 38°01' E 012°30'10 9.9
2016-Jun-26 08:33N 37°56' E 012°19'6 6.2
2016-Jun-26 07:33N 37°58' E 012°12'1514.8
2016-Jun-26 06:33N 38°01' E 012°31'9 8.7
2016-Jun-26 05:33N 37°58' E 012°20'9 8.7
2016-Jun-26 04:33N 38°01' E 012°31'0 0.0
2016-Jun-25 19:19N 38°01' E 012°31'810.5
2016-Jun-25 18:33N 37°59' E 012°21'2 2.5
2016-Jun-25 17:34N 37°58' E 012°23'6 6.3
2016-Jun-25 16:33N 38°01' E 012°31'9 9.0
2016-Jun-25 15:33N 37°58' E 012°20'4 3.5
2016-Jun-25 14:30N 37°58' E 012°15'1213.2
2016-Jun-25 13:33N 38°01' E 012°30'0 0.2
2016-Jun-25 12:33N 38°01' E 012°31'0 0.0
2016-Jun-25 11:34N 38°01' E 012°31'6 6.0
2016-Jun-25 10:33N 37°58' E 012°24'6 6.0
2016-Jun-25 09:34N 38°01' E 012°31'8 8.1
2016-Jun-25 08:33N 37°59' E 012°21'3 2.9
2016-Jun-25 07:30N 37°58' E 012°17'1111.9
2016-Jun-25 06:33N 38°01' E 012°31'9 9.1
2016-Jun-25 05:33N 37°58' E 012°20'9 9.2
2016-Jun-25 04:34N 38°01' E 012°31'0 0.0
2016-Jun-24 19:22N 38°01' E 012°31'810.0
2016-Jun-24 18:32N 37°59' E 012°21'2 2.1
2016-Jun-24 17:33N 37°58' E 012°23'7 6.9
2016-Jun-24 16:33N 38°01' E 012°31'8 8.3
2016-Jun-24 15:34N 37°59' E 012°20'3 2.2
2016-Jun-24 14:23N 37°58' E 012°17'1113.0
2016-Jun-24 13:33N 38°01' E 012°31'0 0.0
2016-Jun-24 12:33N 38°01' E 012°31'0 0.0
2016-Jun-24 11:34N 38°01' E 012°31'6 6.2
2016-Jun-24 10:34N 37°59' E 012°23'6 6.1
2016-Jun-24 09:33N 38°01' E 012°31'9 9.2
2016-Jun-24 08:33N 37°58' E 012°19'3 2.9
2016-Jun-24 07:32N 37°59' E 012°16'12 4.0
2016-Jun-24 04:33N 38°01' E 012°31'0 0.0
2016-Jun-23 19:15N 38°01' E 012°31'913.6
2016-Jun-23 18:33N 37°58' E 012°19'4 4.3
2016-Jun-23 17:33N 37°58' E 012°25'5 5.3
2016-Jun-23 16:33N 38°01' E 012°31'1010.1
2016-Jun-23 15:33N 37°56' E 012°19'3 2.2
2016-Jun-23 14:26N 37°57' E 012°16'1213.5
2016-Jun-23 13:33N 38°01' E 012°31'0 0.0
2016-Jun-23 12:33N 38°01' E 012°31'0 0.0
2016-Jun-23 11:33N 38°01' E 012°31'5 4.7
2016-Jun-23 10:33N 37°59' E 012°25'5 4.6
2016-Jun-23 09:33N 38°01' E 012°31'8 8.2
2016-Jun-23 08:33N 37°59' E 012°20'4 3.7
2016-Jun-23 07:30N 37°57' E 012°16'3 1.3
2016-Jun-23 05:33N 37°58' E 012°19'10 9.5
2016-Jun-23 04:33N 38°01' E 012°31'0 0.0
2016-Jun-22 19:18N 38°01' E 012°31'911.6
2016-Jun-22 18:33N 37°59' E 012°20'3 3.4
2016-Jun-22 17:33N 37°58' E 012°24'5 5.4
2016-Jun-22 16:32N 38°01' E 012°31'1010.2
2016-Jun-22 15:34N 37°56' E 012°19'1 1.0
2016-Jun-22 14:23N 37°58' E 012°19'1012.2
2016-Jun-22 13:33N 38°01' E 012°31'0 0.0
2016-Jun-22 12:33N 38°01' E 012°31'0 0.0
2016-Jun-22 11:33N 38°01' E 012°31'8 7.6
2016-Jun-22 10:33N 37°59' E 012°21'8 7.6
2016-Jun-22 09:33N 38°01' E 012°31'10 9.9
2016-Jun-22 08:33N 37°57' E 012°19'2 1.5
2016-Jun-22 07:25N 37°59' E 012°19'910.5
2016-Jun-22 06:33N 38°01' E 012°31'9 8.9
2016-Jun-22 05:33N 37°58' E 012°20'9 8.9
2016-Jun-22 04:33N 38°01' E 012°31'0 0.0
2016-Jun-21 19:21N 38°01' E 012°31'810.3
2016-Jun-21 18:33N 37°59' E 012°21'3 3.3
2016-Jun-21 17:33N 37°58' E 012°25'5 5.2
2016-Jun-21 16:32N 38°01' E 012°31'8 8.6
2016-Jun-21 15:33N 37°59' E 012°20'2 1.5
2016-Jun-21 14:20N 37°57' E 012°19'1012.8
2016-Jun-21 13:34N 38°01' E 012°31'0 0.1
2016-Jun-21 12:34N 38°01' E 012°31'0 0.0
2016-Jun-21 11:33N 38°01' E 012°31'7 7.1
2016-Jun-21 10:33N 37°59' E 012°22'7 7.0
2016-Jun-21 09:33N 38°01' E 012°31'1814.2
2016-Jun-21 08:16N 37°58' E 012°08'1011.7
2016-Jun-21 07:24N 37°59' E 012°20'0 0.2
2016-Jun-21 05:33N 37°59' E 012°20'8 8.4
2016-Jun-21 04:33N 38°01' E 012°31'0 0.0
2016-Jun-20 19:19N 38°01' E 012°31'911.9
2016-Jun-20 18:33N 37°58' E 012°20'1 0.8
2016-Jun-20 17:33N 37°58' E 012°20'9 8.7
2016-Jun-20 16:33N 38°01' E 012°31'10 9.9
2016-Jun-20 15:33N 37°57' E 012°19'2 1.4
2016-Jun-20 14:21N 37°57' E 012°17'1113.8
2016-Jun-20 13:33N 38°01' E 012°31'0 0.1
2016-Jun-20 12:34N 38°01' E 012°31'0 0.0
2016-Jun-20 11:34N 38°01' E 012°31'10 7.5
2016-Jun-20 10:16N 37°57' E 012°19'3 0.2
2016-Jun-19 17:33N 37°59' E 012°22'7 6.9
2016-Jun-19 16:33N 38°01' E 012°31'10 9.3
2016-Jun-19 15:32N 37°59' E 012°19'1 1.2
2016-Jun-19 14:21N 37°58' E 012°18'1113.2
2016-Jun-19 13:33N 38°01' E 012°31'8 8.1
2016-Jun-19 12:33N 37°59' E 012°21'8 8.2
2016-Jun-19 11:33N 38°01' E 012°31'0 0.0
2016-Jun-19 10:33N 38°01' E 012°31'0 0.0
2016-Jun-19 09:33N 38°01' E 012°31'10 9.9
2016-Jun-19 08:33N 37°56' E 012°20'3 2.3
2016-Jun-19 07:13N 37°59' E 012°20'6 9.6
2016-Jun-19 06:34N 37°59' E 012°28'8 7.7
2016-Jun-19 05:33N 37°57' E 012°19'10 9.8
2016-Jun-19 04:33N 38°01' E 012°31'8 0.7
2016-Jun-18 17:33N 37°59' E 012°21'8 8.3
2016-Jun-18 16:33N 38°01' E 012°31'9 8.7
2016-Jun-18 15:33N 37°59' E 012°20'3 2.5
2016-Jun-18 14:26N 37°58' E 012°17'1213.0
2016-Jun-18 13:33N 38°01' E 012°31'9 9.4
2016-Jun-18 12:33N 37°58' E 012°19'9 9.4
2016-Jun-18 11:33N 38°01' E 012°31'0 0.0
2016-Jun-18 10:33N 38°01' E 012°31'0 0.0
2016-Jun-18 09:33N 38°01' E 012°31'8 8.1
2016-Jun-18 08:33N 37°59' E 012°21'0 0.2
2016-Jun-18 07:22N 37°59' E 012°20'8 9.9
2016-Jun-18 06:33N 38°01' E 012°30'9 8.5
2016-Jun-18 05:33N 37°58' E 012°20'9 8.9
2016-Jun-18 04:34N 38°01' E 012°31'8 0.7
2016-Jun-17 17:33N 37°59' E 012°21'8 8.2
2016-Jun-17 16:33N 38°01' E 012°31'8 8.0
2016-Jun-17 15:33N 37°59' E 012°21'3 3.0
2016-Jun-17 14:27N 37°58' E 012°17'1112.8
2016-Jun-17 13:33N 38°01' E 012°31'8 8.3
2016-Jun-17 12:34N 37°59' E 012°20'8 8.1
2016-Jun-17 11:33N 38°01' E 012°31'0 0.0
2016-Jun-17 10:33N 38°01' E 012°31'0 0.0
2016-Jun-17 09:33N 38°01' E 012°31'1010.0
2016-Jun-17 08:33N 37°56' E 012°20'  
Track history (hours):
 
Tides and Currents Weather Stations Pressure Air Temp Water Temp Dewpoint Dewpoint Depression Visibility Wind Speed Wind Dir Waves Ship Positions

Calypso

Last reported at 2016-Jun-27 07:32 UTC. Time now 2016-Jun-27 07:50 UTC.
Position N 37°58' E 012°14'.

Length 25 m; draft 4.2 m.

Type: High speed craft. MMSI: 247143200.

Date/timePositionNaut miles runAvg speedWind from/ knotsBaromVisibWave heightAir tempDewpointWater temp
2016-Jun-27 07:32N 37°58' E 012°14'1313.4
2016-Jun-27 06:33N 38°01' E 012°30'9 9.2
2016-Jun-27 05:33N 37°58' E 012°19'9 9.4
2016-Jun-27 04:33N 38°01' E 012°31'0 0.0
2016-Jun-26 19:27N 38°01' E 012°31'8 9.1
2016-Jun-26 18:33N 37°59' E 012°21'3 2.9
2016-Jun-26 17:33N 37°58' E 012°24'5 5.4
2016-Jun-26 16:34N 38°01' E 012°30'10 9.7
2016-Jun-26 15:33N 37°57' E 012°19'7 6.2
2016-Jun-26 14:30N 37°58' E 012°11'1616.3
2016-Jun-26 13:33N 38°01' E 012°30'0 0.1
2016-Jun-26 12:33N 38°01' E 012°31'0 0.0
2016-Jun-26 11:33N 38°01' E 012°31'4 3.8
2016-Jun-26 10:34N 38°00' E 012°26'4 3.6
2016-Jun-26 09:33N 38°01' E 012°30'10 9.9
2016-Jun-26 08:33N 37°56' E 012°19'6 6.2
2016-Jun-26 07:33N 37°58' E 012°12'1514.8
2016-Jun-26 06:33N 38°01' E 012°31'9 8.7
2016-Jun-26 05:33N 37°58' E 012°20'9 8.7
2016-Jun-26 04:33N 38°01' E 012°31'0 0.0
2016-Jun-25 19:19N 38°01' E 012°31'810.5
2016-Jun-25 18:33N 37°59' E 012°21'2 2.5
2016-Jun-25 17:34N 37°58' E 012°23'6 6.3
2016-Jun-25 16:33N 38°01' E 012°31'9 9.0
2016-Jun-25 15:33N 37°58' E 012°20'4 3.5
2016-Jun-25 14:30N 37°58' E 012°15'1213.2
2016-Jun-25 13:33N 38°01' E 012°30'0 0.2
2016-Jun-25 12:33N 38°01' E 012°31'0 0.0
2016-Jun-25 11:34N 38°01' E 012°31'6 6.0
2016-Jun-25 10:33N 37°58' E 012°24'6 6.0
2016-Jun-25 09:34N 38°01' E 012°31'8 8.1
2016-Jun-25 08:33N 37°59' E 012°21'3 2.9
2016-Jun-25 07:30N 37°58' E 012°17'1111.9
2016-Jun-25 06:33N 38°01' E 012°31'9 9.1
2016-Jun-25 05:33N 37°58' E 012°20'9 9.2
2016-Jun-25 04:34N 38°01' E 012°31'0 0.0
2016-Jun-24 19:22N 38°01' E 012°31'810.0
2016-Jun-24 18:32N 37°59' E 012°21'2 2.1
2016-Jun-24 17:33N 37°58' E 012°23'7 6.9
2016-Jun-24 16:33N 38°01' E 012°31'8 8.3
2016-Jun-24 15:34N 37°59' E 012°20'3 2.2
2016-Jun-24 14:23N 37°58' E 012°17'1113.0
2016-Jun-24 13:33N 38°01' E 012°31'0 0.0
2016-Jun-24 12:33N 38°01' E 012°31'0 0.0
2016-Jun-24 11:34N 38°01' E 012°31'6 6.2
2016-Jun-24 10:34N 37°59' E 012°23'6 6.1
2016-Jun-24 09:33N 38°01' E 012°31'9 9.2
2016-Jun-24 08:33N 37°58' E 012°19'3 2.9
2016-Jun-24 07:32N 37°59' E 012°16'12 4.0
2016-Jun-24 04:33N 38°01' E 012°31'0 0.0
2016-Jun-23 19:15N 38°01' E 012°31'913.6
2016-Jun-23 18:33N 37°58' E 012°19'4 4.3
2016-Jun-23 17:33N 37°58' E 012°25'5 5.3
2016-Jun-23 16:33N 38°01' E 012°31'1010.1
2016-Jun-23 15:33N 37°56' E 012°19'3 2.2
2016-Jun-23 14:26N 37°57' E 012°16'1213.5
2016-Jun-23 13:33N 38°01' E 012°31'0 0.0
2016-Jun-23 12:33N 38°01' E 012°31'0 0.0
2016-Jun-23 11:33N 38°01' E 012°31'5 4.7
2016-Jun-23 10:33N 37°59' E 012°25'5 4.6
2016-Jun-23 09:33N 38°01' E 012°31'8 8.2
2016-Jun-23 08:33N 37°59' E 012°20'4 3.7
2016-Jun-23 07:30N 37°57' E 012°16'3 1.3
2016-Jun-23 05:33N 37°58' E 012°19'10 9.5
2016-Jun-23 04:33N 38°01' E 012°31'0 0.0
2016-Jun-22 19:18N 38°01' E 012°31'911.6
2016-Jun-22 18:33N 37°59' E 012°20'3 3.4
2016-Jun-22 17:33N 37°58' E 012°24'5 5.4
2016-Jun-22 16:32N 38°01' E 012°31'1010.2
2016-Jun-22 15:34N 37°56' E 012°19'1 1.0
2016-Jun-22 14:23N 37°58' E 012°19'1012.2
2016-Jun-22 13:33N 38°01' E 012°31'0 0.0
2016-Jun-22 12:33N 38°01' E 012°31'0 0.0
2016-Jun-22 11:33N 38°01' E 012°31'8 7.6
2016-Jun-22 10:33N 37°59' E 012°21'8 7.6
2016-Jun-22 09:33N 38°01' E 012°31'10 9.9
2016-Jun-22 08:33N 37°57' E 012°19'2 1.5
2016-Jun-22 07:25N 37°59' E 012°19'910.5
2016-Jun-22 06:33N 38°01' E 012°31'9 8.9
2016-Jun-22 05:33N 37°58' E 012°20'9 8.9
2016-Jun-22 04:33N 38°01' E 012°31'0 0.0
2016-Jun-21 19:21N 38°01' E 012°31'810.3
2016-Jun-21 18:33N 37°59' E 012°21'3 3.3
2016-Jun-21 17:33N 37°58' E 012°25'5 5.2
2016-Jun-21 16:32N 38°01' E 012°31'8 8.6
2016-Jun-21 15:33N 37°59' E 012°20'2 1.5
2016-Jun-21 14:20N 37°57' E 012°19'1012.8
2016-Jun-21 13:34N 38°01' E 012°31'0 0.1
2016-Jun-21 12:34N 38°01' E 012°31'0 0.0
2016-Jun-21 11:33N 38°01' E 012°31'7 7.1
2016-Jun-21 10:33N 37°59' E 012°22'7 7.0
2016-Jun-21 09:33N 38°01' E 012°31'1814.2
2016-Jun-21 08:16N 37°58' E 012°08'1011.7
2016-Jun-21 07:24N 37°59' E 012°20'0 0.2
2016-Jun-21 05:33N 37°59' E 012°20'8 8.4
2016-Jun-21 04:33N 38°01' E 012°31'0 0.0
2016-Jun-20 19:19N 38°01' E 012°31'911.9
2016-Jun-20 18:33N 37°58' E 012°20'1 0.8
2016-Jun-20 17:33N 37°58' E 012°20'9 8.7
2016-Jun-20 16:33N 38°01' E 012°31'10 9.9
2016-Jun-20 15:33N 37°57' E 012°19'2 1.4
2016-Jun-20 14:21N 37°57' E 012°17'1113.8
2016-Jun-20 13:33N 38°01' E 012°31'0 0.1
2016-Jun-20 12:34N 38°01' E 012°31'0 0.0
2016-Jun-20 11:34N 38°01' E 012°31'10 7.5
2016-Jun-20 10:16N 37°57' E 012°19'3 0.2
2016-Jun-19 17:33N 37°59' E 012°22'7 6.9
2016-Jun-19 16:33N 38°01' E 012°31'10 9.3
2016-Jun-19 15:32N 37°59' E 012°19'1 1.2
2016-Jun-19 14:21N 37°58' E 012°18'1113.2
2016-Jun-19 13:33N 38°01' E 012°31'8 8.1
2016-Jun-19 12:33N 37°59' E 012°21'8 8.2
2016-Jun-19 11:33N 38°01' E 012°31'0 0.0
2016-Jun-19 10:33N 38°01' E 012°31'0 0.0
2016-Jun-19 09:33N 38°01' E 012°31'10 9.9
2016-Jun-19 08:33N 37°56' E 012°20'3 2.3
2016-Jun-19 07:13N 37°59' E 012°20'6 9.6
2016-Jun-19 06:34N 37°59' E 012°28'8 7.7
2016-Jun-19 05:33N 37°57' E 012°19'10 9.8
2016-Jun-19 04:33N 38°01' E 012°31'8 0.7
2016-Jun-18 17:33N 37°59' E 012°21'8 8.3
2016-Jun-18 16:33N 38°01' E 012°31'9 8.7
2016-Jun-18 15:33N 37°59' E 012°20'3 2.5
2016-Jun-18 14:26N 37°58' E 012°17'1213.0
2016-Jun-18 13:33N 38°01' E 012°31'9 9.4
2016-Jun-18 12:33N 37°58' E 012°19'9 9.4
2016-Jun-18 11:33N 38°01' E 012°31'0 0.0
2016-Jun-18 10:33N 38°01' E 012°31'0 0.0
2016-Jun-18 09:33N 38°01' E 012°31'8 8.1
2016-Jun-18 08:33N 37°59' E 012°21'0 0.2
2016-Jun-18 07:22N 37°59' E 012°20'8 9.9
2016-Jun-18 06:33N 38°01' E 012°30'9 8.5
2016-Jun-18 05:33N 37°58' E 012°20'9 8.9
2016-Jun-18 04:34N 38°01' E 012°31'8 0.7
2016-Jun-17 17:33N 37°59' E 012°21'8 8.2
2016-Jun-17 16:33N 38°01' E 012°31'8 8.0
2016-Jun-17 15:33N 37°59' E 012°21'3 3.0
2016-Jun-17 14:27N 37°58' E 012°17'1112.8
2016-Jun-17 13:33N 38°01' E 012°31'8 8.3
2016-Jun-17 12:34N 37°59' E 012°20'8 8.1
2016-Jun-17 11:33N 38°01' E 012°31'0 0.0
2016-Jun-17 10:33N 38°01' E 012°31'0 0.0
2016-Jun-17 09:33N 38°01' E 012°31'1010.0
2016-Jun-17 08:33N 37°56' E 012°20'  

Dump ship's entire track history